sensor_id;sensor_type;location;lat;lon;timestamp;temperature;humidity
45643;DHT22;31358;46.008;11.144;2023-09-19T00:00:37;19.20;99.90
45643;DHT22;31358;46.008;11.144;2023-09-19T00:03:03;19.20;99.90
45643;DHT22;31358;46.008;11.144;2023-09-19T00:05:33;19.00;99.90
45643;DHT22;31358;46.008;11.144;2023-09-19T00:08:00;19.00;99.90
45643;DHT22;31358;46.008;11.144;2023-09-19T00:10:27;18.90;99.90
45643;DHT22;31358;46.008;11.144;2023-09-19T00:12:57;19.00;99.90
45643;DHT22;31358;46.008;11.144;2023-09-19T00:15:23;18.90;99.90
45643;DHT22;31358;46.008;11.144;2023-09-19T00:17:49;18.90;99.90
45643;DHT22;31358;46.008;11.144;2023-09-19T00:20:18;18.90;99.90
45643;DHT22;31358;46.008;11.144;2023-09-19T00:22:44;18.90;99.90
45643;DHT22;31358;46.008;11.144;2023-09-19T00:25:11;18.90;99.90
45643;DHT22;31358;46.008;11.144;2023-09-19T00:27:40;18.80;99.90
45643;DHT22;31358;46.008;11.144;2023-09-19T00:30:10;18.80;99.90
45643;DHT22;31358;46.008;11.144;2023-09-19T00:32:41;18.70;99.90
45643;DHT22;31358;46.008;11.144;2023-09-19T00:35:07;18.70;99.90
45643;DHT22;31358;46.008;11.144;2023-09-19T00:37:37;18.60;99.90
45643;DHT22;31358;46.008;11.144;2023-09-19T00:40:06;18.70;99.90
45643;DHT22;31358;46.008;11.144;2023-09-19T00:42:32;18.60;99.90
45643;DHT22;31358;46.008;11.144;2023-09-19T00:44:59;18.60;99.90
45643;DHT22;31358;46.008;11.144;2023-09-19T00:47:29;18.60;99.90
45643;DHT22;31358;46.008;11.144;2023-09-19T00:49:55;18.70;99.90
45643;DHT22;31358;46.008;11.144;2023-09-19T00:52:21;18.60;99.90
45643;DHT22;31358;46.008;11.144;2023-09-19T00:54:49;18.60;99.90
45643;DHT22;31358;46.008;11.144;2023-09-19T00:57:15;18.50;99.90
45643;DHT22;31358;46.008;11.144;2023-09-19T00:59:45;18.40;99.90
45643;DHT22;31358;46.008;11.144;2023-09-19T01:02:14;18.40;99.90
45643;DHT22;31358;46.008;11.144;2023-09-19T01:04:40;18.50;99.90
45643;DHT22;31358;46.008;11.144;2023-09-19T01:07:07;18.40;99.90
45643;DHT22;31358;46.008;11.144;2023-09-19T01:09:34;18.40;99.90
45643;DHT22;31358;46.008;11.144;2023-09-19T01:12:04;18.50;99.90
45643;DHT22;31358;46.008;11.144;2023-09-19T01:20:17;18.50;99.90
45643;DHT22;31358;46.008;11.144;2023-09-19T01:31:51;18.40;99.90
45643;DHT22;31358;46.008;11.144;2023-09-19T01:34:19;18.40;99.90
45643;DHT22;31358;46.008;11.144;2023-09-19T01:36:46;18.40;99.90
45643;DHT22;31358;46.008;11.144;2023-09-19T01:39:13;18.30;99.90
45643;DHT22;31358;46.008;11.144;2023-09-19T01:44:25;18.30;99.90
45643;DHT22;31358;46.008;11.144;2023-09-19T01:46:58;18.40;99.90
45643;DHT22;31358;46.008;11.144;2023-09-19T01:49:37;18.30;99.90
45643;DHT22;31358;46.008;11.144;2023-09-19T01:52:10;18.30;99.90
45643;DHT22;31358;46.008;11.144;2023-09-19T01:54:52;18.20;99.90
45643;DHT22;31358;46.008;11.144;2023-09-19T01:57:27;18.10;99.90
45643;DHT22;31358;46.008;11.144;2023-09-19T02:00:02;18.10;99.90
45643;DHT22;31358;46.008;11.144;2023-09-19T02:02:37;18.10;99.90
45643;DHT22;31358;46.008;11.144;2023-09-19T02:05:04;18.00;99.90
45643;DHT22;31358;46.008;11.144;2023-09-19T02:07:30;18.10;99.90
45643;DHT22;31358;46.008;11.144;2023-09-19T02:09:58;18.10;99.90
45643;DHT22;31358;46.008;11.144;2023-09-19T02:12:27;17.90;99.90
45643;DHT22;31358;46.008;11.144;2023-09-19T02:14:53;17.90;99.90
45643;DHT22;31358;46.008;11.144;2023-09-19T02:17:18;17.90;99.90
45643;DHT22;31358;46.008;11.144;2023-09-19T02:19:44;17.90;99.90
45643;DHT22;31358;46.008;11.144;2023-09-19T02:22:10;17.90;99.90
45643;DHT22;31358;46.008;11.144;2023-09-19T02:24:39;17.90;99.90
45643;DHT22;31358;46.008;11.144;2023-09-19T02:27:05;17.80;99.90
45643;DHT22;31358;46.008;11.144;2023-09-19T02:29:31;17.60;99.90
45643;DHT22;31358;46.008;11.144;2023-09-19T02:31:59;17.60;99.90
45643;DHT22;31358;46.008;11.144;2023-09-19T02:34:27;17.60;99.90
45643;DHT22;31358;46.008;11.144;2023-09-19T02:36:52;17.60;99.90
45643;DHT22;31358;46.008;11.144;2023-09-19T02:39:20;17.70;99.90
45643;DHT22;31358;46.008;11.144;2023-09-19T02:41:46;17.70;99.90
45643;DHT22;31358;46.008;11.144;2023-09-19T02:44:11;17.60;99.90
45643;DHT22;31358;46.008;11.144;2023-09-19T02:46:37;17.60;99.90
45643;DHT22;31358;46.008;11.144;2023-09-19T02:49:03;17.70;99.90
45643;DHT22;31358;46.008;11.144;2023-09-19T02:51:32;17.60;99.90
45643;DHT22;31358;46.008;11.144;2023-09-19T02:53:59;17.60;99.90
45643;DHT22;31358;46.008;11.144;2023-09-19T02:56:25;17.60;99.90
45643;DHT22;31358;46.008;11.144;2023-09-19T02:58:51;17.70;99.90
45643;DHT22;31358;46.008;11.144;2023-09-19T03:01:17;17.60;99.90
45643;DHT22;31358;46.008;11.144;2023-09-19T03:03:44;17.30;99.90
45643;DHT22;31358;46.008;11.144;2023-09-19T03:06:11;17.20;99.90
45643;DHT22;31358;46.008;11.144;2023-09-19T03:08:38;17.30;99.90
45643;DHT22;31358;46.008;11.144;2023-09-19T03:11:05;17.30;99.90
45643;DHT22;31358;46.008;11.144;2023-09-19T03:13:32;17.30;99.90
45643;DHT22;31358;46.008;11.144;2023-09-19T03:15:58;17.20;99.90
45643;DHT22;31358;46.008;11.144;2023-09-19T03:18:24;17.30;99.90
45643;DHT22;31358;46.008;11.144;2023-09-19T03:20:55;17.40;99.90
45643;DHT22;31358;46.008;11.144;2023-09-19T03:23:22;17.50;99.90
45643;DHT22;31358;46.008;11.144;2023-09-19T03:25:47;17.50;99.90
45643;DHT22;31358;46.008;11.144;2023-09-19T03:28:13;17.60;99.90
45643;DHT22;31358;46.008;11.144;2023-09-19T03:30:41;17.50;99.90
45643;DHT22;31358;46.008;11.144;2023-09-19T03:33:07;17.50;99.90
45643;DHT22;31358;46.008;11.144;2023-09-19T03:35:33;17.30;99.90
45643;DHT22;31358;46.008;11.144;2023-09-19T03:38:00;17.30;99.90
45643;DHT22;31358;46.008;11.144;2023-09-19T03:40:25;17.20;99.90
45643;DHT22;31358;46.008;11.144;2023-09-19T03:42:51;17.40;99.90
45643;DHT22;31358;46.008;11.144;2023-09-19T03:45:17;17.30;99.90
45643;DHT22;31358;46.008;11.144;2023-09-19T03:47:43;17.20;99.90
45643;DHT22;31358;46.008;11.144;2023-09-19T03:50:09;17.20;99.90
45643;DHT22;31358;46.008;11.144;2023-09-19T03:52:40;17.10;99.90
45643;DHT22;31358;46.008;11.144;2023-09-19T03:55:06;17.30;99.90
45643;DHT22;31358;46.008;11.144;2023-09-19T03:57:32;17.20;99.90
45643;DHT22;31358;46.008;11.144;2023-09-19T03:59:58;17.10;99.90
45643;DHT22;31358;46.008;11.144;2023-09-19T04:02:24;17.20;99.90
45643;DHT22;31358;46.008;11.144;2023-09-19T04:04:52;17.20;99.90
45643;DHT22;31358;46.008;11.144;2023-09-19T04:07:18;17.10;99.90
45643;DHT22;31358;46.008;11.144;2023-09-19T04:09:48;17.10;99.90
45643;DHT22;31358;46.008;11.144;2023-09-19T04:12:14;17.20;99.90
45643;DHT22;31358;46.008;11.144;2023-09-19T04:14:42;17.20;99.90
45643;DHT22;31358;46.008;11.144;2023-09-19T04:17:08;17.10;99.90
45643;DHT22;31358;46.008;11.144;2023-09-19T04:19:35;17.10;99.90
45643;DHT22;31358;46.008;11.144;2023-09-19T04:22:01;16.90;99.90
45643;DHT22;31358;46.008;11.144;2023-09-19T04:24:27;16.90;99.90
45643;DHT22;31358;46.008;11.144;2023-09-19T04:26:52;16.90;99.90
45643;DHT22;31358;46.008;11.144;2023-09-19T04:29:18;17.00;99.90
45643;DHT22;31358;46.008;11.144;2023-09-19T04:31:44;16.90;99.90
45643;DHT22;31358;46.008;11.144;2023-09-19T04:34:11;17.10;99.90
45643;DHT22;31358;46.008;11.144;2023-09-19T04:36:43;17.20;99.90
45643;DHT22;31358;46.008;11.144;2023-09-19T04:39:09;17.30;99.90
45643;DHT22;31358;46.008;11.144;2023-09-19T04:41:36;17.30;99.90
45643;DHT22;31358;46.008;11.144;2023-09-19T04:44:07;17.20;99.90
45643;DHT22;31358;46.008;11.144;2023-09-19T04:46:34;17.10;99.90
45643;DHT22;31358;46.008;11.144;2023-09-19T04:48:59;17.20;99.90
45643;DHT22;31358;46.008;11.144;2023-09-19T04:51:26;17.10;99.90
45643;DHT22;31358;46.008;11.144;2023-09-19T04:53:54;17.00;99.90
45643;DHT22;31358;46.008;11.144;2023-09-19T04:56:20;16.90;99.90
45643;DHT22;31358;46.008;11.144;2023-09-19T04:58:46;16.90;99.90
45643;DHT22;31358;46.008;11.144;2023-09-19T05:01:12;17.00;99.90
45643;DHT22;31358;46.008;11.144;2023-09-19T05:03:40;17.00;99.90
45643;DHT22;31358;46.008;11.144;2023-09-19T05:06:06;17.00;99.90
45643;DHT22;31358;46.008;11.144;2023-09-19T05:08:31;16.90;99.90
45643;DHT22;31358;46.008;11.144;2023-09-19T05:10:57;16.70;99.90
45643;DHT22;31358;46.008;11.144;2023-09-19T05:13:23;16.80;99.90
45643;DHT22;31358;46.008;11.144;2023-09-19T05:15:49;16.80;99.90
45643;DHT22;31358;46.008;11.144;2023-09-19T05:18:18;16.90;99.90
45643;DHT22;31358;46.008;11.144;2023-09-19T05:20:44;16.90;99.90
45643;DHT22;31358;46.008;11.144;2023-09-19T05:23:09;16.90;99.90
45643;DHT22;31358;46.008;11.144;2023-09-19T05:25:38;16.90;99.90
45643;DHT22;31358;46.008;11.144;2023-09-19T05:28:08;16.60;99.90
45643;DHT22;31358;46.008;11.144;2023-09-19T05:30:35;16.60;99.90
45643;DHT22;31358;46.008;11.144;2023-09-19T05:33:04;16.70;99.90
45643;DHT22;31358;46.008;11.144;2023-09-19T05:35:31;16.70;99.90
45643;DHT22;31358;46.008;11.144;2023-09-19T05:37:57;16.60;99.90
45643;DHT22;31358;46.008;11.144;2023-09-19T05:40:24;16.70;99.90
45643;DHT22;31358;46.008;11.144;2023-09-19T05:42:50;16.70;99.90
45643;DHT22;31358;46.008;11.144;2023-09-19T05:45:16;16.80;99.90
45643;DHT22;31358;46.008;11.144;2023-09-19T05:47:48;16.80;99.90
45643;DHT22;31358;46.008;11.144;2023-09-19T05:50:14;16.80;99.90
45643;DHT22;31358;46.008;11.144;2023-09-19T05:52:41;16.60;99.90
45643;DHT22;31358;46.008;11.144;2023-09-19T05:55:08;16.70;99.90
45643;DHT22;31358;46.008;11.144;2023-09-19T05:57:37;16.70;99.90
45643;DHT22;31358;46.008;11.144;2023-09-19T06:00:08;16.80;99.90
45643;DHT22;31358;46.008;11.144;2023-09-19T06:02:40;16.70;99.90
45643;DHT22;31358;46.008;11.144;2023-09-19T06:05:06;16.80;99.90
45643;DHT22;31358;46.008;11.144;2023-09-19T06:12:43;16.90;99.90
45643;DHT22;31358;46.008;11.144;2023-09-19T06:15:15;16.90;99.90
45643;DHT22;31358;46.008;11.144;2023-09-19T06:17:55;16.90;99.90
45643;DHT22;31358;46.008;11.144;2023-09-19T06:20:21;16.80;99.90
45643;DHT22;31358;46.008;11.144;2023-09-19T06:22:48;17.00;99.90
45643;DHT22;31358;46.008;11.144;2023-09-19T06:25:15;16.90;99.90
45643;DHT22;31358;46.008;11.144;2023-09-19T06:27:48;17.00;99.90
45643;DHT22;31358;46.008;11.144;2023-09-19T06:30:14;16.80;99.90
45643;DHT22;31358;46.008;11.144;2023-09-19T06:32:41;16.80;99.90
45643;DHT22;31358;46.008;11.144;2023-09-19T06:35:14;16.80;99.90
45643;DHT22;31358;46.008;11.144;2023-09-19T06:37:42;16.90;99.90
45643;DHT22;31358;46.008;11.144;2023-09-19T06:40:11;17.00;99.90
45643;DHT22;31358;46.008;11.144;2023-09-19T06:43:06;17.00;99.90
45643;DHT22;31358;46.008;11.144;2023-09-19T06:45:32;17.20;99.90
45643;DHT22;31358;46.008;11.144;2023-09-19T06:47:58;17.20;99.90
45643;DHT22;31358;46.008;11.144;2023-09-19T06:50:25;17.20;99.90
45643;DHT22;31358;46.008;11.144;2023-09-19T06:52:53;17.20;99.90
45643;DHT22;31358;46.008;11.144;2023-09-19T06:55:20;17.20;99.90
45643;DHT22;31358;46.008;11.144;2023-09-19T06:57:46;17.30;99.90
45643;DHT22;31358;46.008;11.144;2023-09-19T07:00:13;17.40;99.90
45643;DHT22;31358;46.008;11.144;2023-09-19T07:03:00;17.50;99.90
45643;DHT22;31358;46.008;11.144;2023-09-19T07:05:33;17.40;99.90
45643;DHT22;31358;46.008;11.144;2023-09-19T07:08:01;17.50;99.90
45643;DHT22;31358;46.008;11.144;2023-09-19T07:10:27;17.50;99.90
45643;DHT22;31358;46.008;11.144;2023-09-19T07:13:01;17.50;99.90
45643;DHT22;31358;46.008;11.144;2023-09-19T07:15:28;17.60;99.90
45643;DHT22;31358;46.008;11.144;2023-09-19T07:17:54;17.60;99.90
45643;DHT22;31358;46.008;11.144;2023-09-19T07:20:22;17.60;99.90
45643;DHT22;31358;46.008;11.144;2023-09-19T07:22:51;17.60;99.90
45643;DHT22;31358;46.008;11.144;2023-09-19T07:25:17;17.70;99.90
45643;DHT22;31358;46.008;11.144;2023-09-19T07:27:43;17.80;99.90
45643;DHT22;31358;46.008;11.144;2023-09-19T07:30:09;17.80;99.90
45643;DHT22;31358;46.008;11.144;2023-09-19T07:32:35;17.90;99.90
45643;DHT22;31358;46.008;11.144;2023-09-19T07:35:05;17.90;99.90
45643;DHT22;31358;46.008;11.144;2023-09-19T07:37:34;17.90;99.90
45643;DHT22;31358;46.008;11.144;2023-09-19T07:40:04;17.80;99.90
45643;DHT22;31358;46.008;11.144;2023-09-19T07:42:35;17.90;99.90
45643;DHT22;31358;46.008;11.144;2023-09-19T07:45:02;17.90;99.90
45643;DHT22;31358;46.008;11.144;2023-09-19T07:47:28;18.10;99.90
45643;DHT22;31358;46.008;11.144;2023-09-19T07:49:55;18.00;99.90
45643;DHT22;31358;46.008;11.144;2023-09-19T07:52:21;17.90;99.90
45643;DHT22;31358;46.008;11.144;2023-09-19T07:54:48;17.90;99.90
45643;DHT22;31358;46.008;11.144;2023-09-19T07:57:15;17.90;99.90
45643;DHT22;31358;46.008;11.144;2023-09-19T07:59:41;18.00;99.90
45643;DHT22;31358;46.008;11.144;2023-09-19T08:02:08;18.10;99.90
45643;DHT22;31358;46.008;11.144;2023-09-19T08:04:35;18.20;99.90
45643;DHT22;31358;46.008;11.144;2023-09-19T08:07:01;18.30;99.90
45643;DHT22;31358;46.008;11.144;2023-09-19T08:09:29;18.40;99.90
45643;DHT22;31358;46.008;11.144;2023-09-19T08:11:59;18.50;99.90
45643;DHT22;31358;46.008;11.144;2023-09-19T08:14:29;18.60;99.90
45643;DHT22;31358;46.008;11.144;2023-09-19T08:16:58;18.60;99.90
45643;DHT22;31358;46.008;11.144;2023-09-19T08:19:25;18.60;99.90
45643;DHT22;31358;46.008;11.144;2023-09-19T08:21:55;18.60;99.90
45643;DHT22;31358;46.008;11.144;2023-09-19T08:24:27;18.70;99.90
45643;DHT22;31358;46.008;11.144;2023-09-19T08:26:54;18.80;99.90
45643;DHT22;31358;46.008;11.144;2023-09-19T08:29:24;19.00;99.90
45643;DHT22;31358;46.008;11.144;2023-09-19T08:32:02;19.00;99.90
45643;DHT22;31358;46.008;11.144;2023-09-19T08:34:28;18.90;99.90
45643;DHT22;31358;46.008;11.144;2023-09-19T08:36:54;19.00;99.90
45643;DHT22;31358;46.008;11.144;2023-09-19T08:39:24;18.90;99.90
45643;DHT22;31358;46.008;11.144;2023-09-19T08:41:49;18.90;99.90
45643;DHT22;31358;46.008;11.144;2023-09-19T08:44:22;18.80;99.90
45643;DHT22;31358;46.008;11.144;2023-09-19T08:46:49;19.00;99.90
45643;DHT22;31358;46.008;11.144;2023-09-19T08:49:27;19.50;99.90
45643;DHT22;31358;46.008;11.144;2023-09-19T08:52:10;19.40;99.90
45643;DHT22;31358;46.008;11.144;2023-09-19T08:54:41;19.30;99.90
45643;DHT22;31358;46.008;11.144;2023-09-19T08:57:09;19.30;99.90
45643;DHT22;31358;46.008;11.144;2023-09-19T08:59:41;19.30;99.90
45643;DHT22;31358;46.008;11.144;2023-09-19T09:02:11;19.30;99.90
45643;DHT22;31358;46.008;11.144;2023-09-19T09:04:40;19.30;99.90
45643;DHT22;31358;46.008;11.144;2023-09-19T09:07:13;19.40;99.90
45643;DHT22;31358;46.008;11.144;2023-09-19T09:09:39;20.10;99.90
45643;DHT22;31358;46.008;11.144;2023-09-19T09:12:12;23.90;99.90
45643;DHT22;31358;46.008;11.144;2023-09-19T09:14:39;26.10;99.90
45643;DHT22;31358;46.008;11.144;2023-09-19T09:17:05;27.10;99.00
45643;DHT22;31358;46.008;11.144;2023-09-19T09:19:32;27.70;98.00
45643;DHT22;31358;46.008;11.144;2023-09-19T09:22:08;28.50;96.80
45643;DHT22;31358;46.008;11.144;2023-09-19T09:24:34;27.70;96.20
45643;DHT22;31358;46.008;11.144;2023-09-19T09:27:04;26.90;97.60
45643;DHT22;31358;46.008;11.144;2023-09-19T09:29:46;27.60;97.10
45643;DHT22;31358;46.008;11.144;2023-09-19T09:32:24;27.30;96.80
45643;DHT22;31358;46.008;11.144;2023-09-19T09:34:53;24.80;96.80
45643;DHT22;31358;46.008;11.144;2023-09-19T09:37:20;23.80;98.70
45643;DHT22;31358;46.008;11.144;2023-09-19T09:39:50;22.70;99.90
45643;DHT22;31358;46.008;11.144;2023-09-19T09:42:33;21.90;99.90
45643;DHT22;31358;46.008;11.144;2023-09-19T09:47:50;21.50;99.90
45643;DHT22;31358;46.008;11.144;2023-09-19T09:50:29;21.20;99.90
45643;DHT22;31358;46.008;11.144;2023-09-19T09:52:56;21.40;99.90
45643;DHT22;31358;46.008;11.144;2023-09-19T09:55:58;21.50;99.90
45643;DHT22;31358;46.008;11.144;2023-09-19T09:58:28;21.40;99.90
45643;DHT22;31358;46.008;11.144;2023-09-19T10:01:01;21.50;99.90
45643;DHT22;31358;46.008;11.144;2023-09-19T10:03:40;21.30;99.90
45643;DHT22;31358;46.008;11.144;2023-09-19T10:06:11;21.50;99.90
45643;DHT22;31358;46.008;11.144;2023-09-19T10:09:08;21.60;99.90
45643;DHT22;31358;46.008;11.144;2023-09-19T10:11:47;21.70;99.90
45643;DHT22;31358;46.008;11.144;2023-09-19T10:14:20;21.80;99.90
45643;DHT22;31358;46.008;11.144;2023-09-19T10:16:52;21.70;99.90
45643;DHT22;31358;46.008;11.144;2023-09-19T10:22:16;21.90;99.90
45643;DHT22;31358;46.008;11.144;2023-09-19T10:24:48;22.10;99.90
45643;DHT22;31358;46.008;11.144;2023-09-19T10:27:18;22.10;99.90
45643;DHT22;31358;46.008;11.144;2023-09-19T10:29:45;22.20;99.90
45643;DHT22;31358;46.008;11.144;2023-09-19T10:32:16;22.30;99.90
45643;DHT22;31358;46.008;11.144;2023-09-19T10:34:47;22.30;99.90
45643;DHT22;31358;46.008;11.144;2023-09-19T10:37:13;22.50;99.90
45643;DHT22;31358;46.008;11.144;2023-09-19T10:39:41;22.70;99.90
45643;DHT22;31358;46.008;11.144;2023-09-19T10:42:14;22.60;99.90
45643;DHT22;31358;46.008;11.144;2023-09-19T10:44:43;22.50;99.90
45643;DHT22;31358;46.008;11.144;2023-09-19T10:47:10;22.70;99.90
45643;DHT22;31358;46.008;11.144;2023-09-19T10:49:44;23.00;99.90
45643;DHT22;31358;46.008;11.144;2023-09-19T10:52:13;22.90;99.90
45643;DHT22;31358;46.008;11.144;2023-09-19T10:54:46;23.00;99.90
45643;DHT22;31358;46.008;11.144;2023-09-19T10:57:25;22.90;99.90
45643;DHT22;31358;46.008;11.144;2023-09-19T11:00:07;23.00;99.90
45643;DHT22;31358;46.008;11.144;2023-09-19T11:06:03;23.00;99.90
45643;DHT22;31358;46.008;11.144;2023-09-19T11:09:15;23.30;99.90
45643;DHT22;31358;46.008;11.144;2023-09-19T11:30:37;24.10;99.90
45643;DHT22;31358;46.008;11.144;2023-09-19T11:33:22;23.80;99.90
45643;DHT22;31358;46.008;11.144;2023-09-19T11:36:12;23.90;99.90
45643;DHT22;31358;46.008;11.144;2023-09-19T11:49:13;24.30;99.90
45643;DHT22;31358;46.008;11.144;2023-09-19T11:51:45;24.50;99.90
45643;DHT22;31358;46.008;11.144;2023-09-19T11:54:13;24.70;99.90
45643;DHT22;31358;46.008;11.144;2023-09-19T11:56:51;24.80;99.90
45643;DHT22;31358;46.008;11.144;2023-09-19T11:59:23;24.50;99.90
45643;DHT22;31358;46.008;11.144;2023-09-19T12:01:54;24.40;99.90
45643;DHT22;31358;46.008;11.144;2023-09-19T12:07:07;24.70;99.90
45643;DHT22;31358;46.008;11.144;2023-09-19T12:09:40;24.90;99.90
45643;DHT22;31358;46.008;11.144;2023-09-19T12:12:08;24.90;99.90
45643;DHT22;31358;46.008;11.144;2023-09-19T12:14:34;24.60;99.90
45643;DHT22;31358;46.008;11.144;2023-09-19T12:17:00;24.60;99.90
45643;DHT22;31358;46.008;11.144;2023-09-19T12:19:28;24.80;99.90
45643;DHT22;31358;46.008;11.144;2023-09-19T12:21:59;24.80;99.90
45643;DHT22;31358;46.008;11.144;2023-09-19T12:24:26;24.90;99.90
45643;DHT22;31358;46.008;11.144;2023-09-19T12:26:59;25.00;99.90
45643;DHT22;31358;46.008;11.144;2023-09-19T12:29:27;25.10;99.90
45643;DHT22;31358;46.008;11.144;2023-09-19T12:31:54;25.10;99.90
45643;DHT22;31358;46.008;11.144;2023-09-19T12:34:27;25.00;99.90
45643;DHT22;31358;46.008;11.144;2023-09-19T12:39:40;25.40;99.70
45643;DHT22;31358;46.008;11.144;2023-09-19T12:42:10;25.40;99.90
45643;DHT22;31358;46.008;11.144;2023-09-19T12:44:45;25.50;99.50
45643;DHT22;31358;46.008;11.144;2023-09-19T12:47:16;25.40;99.90
45643;DHT22;31358;46.008;11.144;2023-09-19T12:50:04;25.50;99.90
45643;DHT22;31358;46.008;11.144;2023-09-19T12:52:37;25.70;99.90
45643;DHT22;31358;46.008;11.144;2023-09-19T12:55:04;25.80;99.90
45643;DHT22;31358;46.008;11.144;2023-09-19T12:57:31;25.60;99.70
45643;DHT22;31358;46.008;11.144;2023-09-19T13:00:03;25.40;99.90
45643;DHT22;31358;46.008;11.144;2023-09-19T13:02:31;25.70;99.90
45643;DHT22;31358;46.008;11.144;2023-09-19T13:04:58;25.70;99.90
45643;DHT22;31358;46.008;11.144;2023-09-19T13:07:45;25.70;99.90
45643;DHT22;31358;46.008;11.144;2023-09-19T13:10:12;25.90;99.90
45643;DHT22;31358;46.008;11.144;2023-09-19T13:12:42;26.10;99.90
45643;DHT22;31358;46.008;11.144;2023-09-19T13:15:14;26.10;99.80
45643;DHT22;31358;46.008;11.144;2023-09-19T13:17:44;25.90;99.70
45643;DHT22;31358;46.008;11.144;2023-09-19T13:20:27;26.10;99.60
45643;DHT22;31358;46.008;11.144;2023-09-19T13:22:54;26.00;98.90
45643;DHT22;31358;46.008;11.144;2023-09-19T13:25:24;26.20;99.90
45643;DHT22;31358;46.008;11.144;2023-09-19T13:27:52;26.20;99.10
45643;DHT22;31358;46.008;11.144;2023-09-19T13:30:20;26.30;99.80
45643;DHT22;31358;46.008;11.144;2023-09-19T13:32:46;26.30;99.10
45643;DHT22;31358;46.008;11.144;2023-09-19T13:35:13;26.20;99.40
45643;DHT22;31358;46.008;11.144;2023-09-19T13:37:40;26.40;99.60
45643;DHT22;31358;46.008;11.144;2023-09-19T13:40:14;26.30;99.50
45643;DHT22;31358;46.008;11.144;2023-09-19T13:42:41;26.10;98.70
45643;DHT22;31358;46.008;11.144;2023-09-19T13:45:07;25.90;99.60
45643;DHT22;31358;46.008;11.144;2023-09-19T13:47:34;25.60;99.70
45643;DHT22;31358;46.008;11.144;2023-09-19T13:50:03;25.40;99.90
45643;DHT22;31358;46.008;11.144;2023-09-19T13:52:30;25.40;99.90
45643;DHT22;31358;46.008;11.144;2023-09-19T13:54:57;25.30;99.90
45643;DHT22;31358;46.008;11.144;2023-09-19T13:57:23;25.20;99.70
45643;DHT22;31358;46.008;11.144;2023-09-19T13:59:49;25.20;99.90
45643;DHT22;31358;46.008;11.144;2023-09-19T14:02:15;25.40;99.90
45643;DHT22;31358;46.008;11.144;2023-09-19T14:04:43;25.50;99.90
45643;DHT22;31358;46.008;11.144;2023-09-19T14:07:09;25.70;99.90
45643;DHT22;31358;46.008;11.144;2023-09-19T14:09:36;25.80;99.90
45643;DHT22;31358;46.008;11.144;2023-09-19T14:12:03;26.00;99.90
45643;DHT22;31358;46.008;11.144;2023-09-19T14:14:28;26.00;99.90
45643;DHT22;31358;46.008;11.144;2023-09-19T14:16:54;25.90;99.90
45643;DHT22;31358;46.008;11.144;2023-09-19T14:19:20;25.80;99.90
45643;DHT22;31358;46.008;11.144;2023-09-19T14:21:46;25.80;99.90
45643;DHT22;31358;46.008;11.144;2023-09-19T14:24:19;25.90;99.90
45643;DHT22;31358;46.008;11.144;2023-09-19T14:26:45;26.10;99.70
45643;DHT22;31358;46.008;11.144;2023-09-19T14:29:11;26.30;99.30
45643;DHT22;31358;46.008;11.144;2023-09-19T14:31:40;26.30;98.70
45643;DHT22;31358;46.008;11.144;2023-09-19T14:34:06;26.50;98.50
45643;DHT22;31358;46.008;11.144;2023-09-19T14:36:32;26.50;98.10
45643;DHT22;31358;46.008;11.144;2023-09-19T14:38:59;26.50;97.60
45643;DHT22;31358;46.008;11.144;2023-09-19T14:41:25;26.50;97.30
45643;DHT22;31358;46.008;11.144;2023-09-19T14:43:54;26.60;97.50
45643;DHT22;31358;46.008;11.144;2023-09-19T14:46:23;26.70;98.60
45643;DHT22;31358;46.008;11.144;2023-09-19T14:48:51;26.70;97.80
45643;DHT22;31358;46.008;11.144;2023-09-19T14:51:17;26.70;98.20
45643;DHT22;31358;46.008;11.144;2023-09-19T14:53:45;26.60;98.00
45643;DHT22;31358;46.008;11.144;2023-09-19T14:56:11;26.50;97.90
45643;DHT22;31358;46.008;11.144;2023-09-19T14:58:38;26.40;97.00
45643;DHT22;31358;46.008;11.144;2023-09-19T15:01:05;26.40;97.40
45643;DHT22;31358;46.008;11.144;2023-09-19T15:03:32;26.40;97.60
45643;DHT22;31358;46.008;11.144;2023-09-19T15:06:00;26.30;97.40
45643;DHT22;31358;46.008;11.144;2023-09-19T15:08:25;26.20;97.90
45643;DHT22;31358;46.008;11.144;2023-09-19T15:10:52;26.20;97.80
45643;DHT22;31358;46.008;11.144;2023-09-19T15:13:19;26.10;98.40
45643;DHT22;31358;46.008;11.144;2023-09-19T15:15:44;26.10;98.30
45643;DHT22;31358;46.008;11.144;2023-09-19T15:18:12;26.10;98.30
45643;DHT22;31358;46.008;11.144;2023-09-19T15:20:43;26.10;98.20
45643;DHT22;31358;46.008;11.144;2023-09-19T15:23:09;26.10;98.10
45643;DHT22;31358;46.008;11.144;2023-09-19T15:25:35;26.00;98.40
45643;DHT22;31358;46.008;11.144;2023-09-19T15:28:01;26.10;98.20
45643;DHT22;31358;46.008;11.144;2023-09-19T15:30:37;26.10;98.20
45643;DHT22;31358;46.008;11.144;2023-09-19T15:33:03;26.20;97.80
45643;DHT22;31358;46.008;11.144;2023-09-19T15:35:29;26.40;98.10
45643;DHT22;31358;46.008;11.144;2023-09-19T15:37:55;26.50;98.10
45643;DHT22;31358;46.008;11.144;2023-09-19T15:40:21;26.50;97.90
45643;DHT22;31358;46.008;11.144;2023-09-19T15:42:49;26.50;97.80
45643;DHT22;31358;46.008;11.144;2023-09-19T15:45:15;26.40;98.20
45643;DHT22;31358;46.008;11.144;2023-09-19T15:47:42;26.40;98.60
45643;DHT22;31358;46.008;11.144;2023-09-19T15:50:08;26.10;99.20
45643;DHT22;31358;46.008;11.144;2023-09-19T15:52:41;25.90;99.20
45643;DHT22;31358;46.008;11.144;2023-09-19T15:55:08;25.80;99.50
45643;DHT22;31358;46.008;11.144;2023-09-19T15:57:37;25.60;99.90
45643;DHT22;31358;46.008;11.144;2023-09-19T16:00:04;25.50;99.90
45643;DHT22;31358;46.008;11.144;2023-09-19T16:02:36;25.40;99.90
45643;DHT22;31358;46.008;11.144;2023-09-19T16:05:01;25.30;99.90
45643;DHT22;31358;46.008;11.144;2023-09-19T16:07:32;25.20;99.90
45643;DHT22;31358;46.008;11.144;2023-09-19T16:09:59;25.30;99.90
45643;DHT22;31358;46.008;11.144;2023-09-19T16:12:25;25.20;99.90
45643;DHT22;31358;46.008;11.144;2023-09-19T16:14:51;25.00;99.90
45643;DHT22;31358;46.008;11.144;2023-09-19T16:17:17;24.90;99.90
45643;DHT22;31358;46.008;11.144;2023-09-19T16:19:43;24.90;99.90
45643;DHT22;31358;46.008;11.144;2023-09-19T16:22:10;24.90;99.90
45643;DHT22;31358;46.008;11.144;2023-09-19T16:24:35;24.90;99.90
45643;DHT22;31358;46.008;11.144;2023-09-19T16:27:01;25.00;99.90
45643;DHT22;31358;46.008;11.144;2023-09-19T16:29:27;25.00;99.90
45643;DHT22;31358;46.008;11.144;2023-09-19T16:31:53;25.00;99.90